Time;durP1;ratioP1;P1;durP2;ratioP2;P2;SDS_P1;SDS_P2;PMS_P1;PMS_P2;Temp;Humidity;BMP_temperature;BMP_pressure;BME280_temperature;BME280_humidity;BME280_pressure;Samples;Min_cycle;Max_cycle;Signal;HPM_P1;HPM_P2
2021/11/18 00:02:19;;;;;;;8.35;4.50;;;;;;;;;;4989520;28;20037;-79
2021/11/18 00:04:44;;;;;;;16.13;5.40;;;;;;;;;;4987979;28;20046;-81
2021/11/18 00:07:10;;;;;;;13.23;5.90;;;;;;;;;;4990633;28;20161;-81
2021/11/18 00:09:35;;;;;;;11.05;5.32;;;;;;;;;;4993766;28;20034;-85
2021/11/18 00:12:00;;;;;;;14.35;5.53;;;;;;;;;;4991629;28;20026;-81
2021/11/18 00:14:26;;;;;;;14.98;5.03;;;;;;;;;;4991668;28;20038;-85
2021/11/18 00:17:25;;;;;;;16.27;5.60;;;;;;;;;;4989990;28;21047;-81
2021/11/18 00:19:50;;;;;;;9.27;4.22;;;;;;;;;;4973043;28;20069;-85
2021/11/18 00:22:16;;;;;;;16.90;5.78;;;;;;;;;;4971651;28;20075;-79
2021/11/18 00:24:42;;;;;;;11.82;5.43;;;;;;;;;;4988969;28;20549;-81
2021/11/18 00:27:07;;;;;;;11.68;5.30;;;;;;;;;;4954548;28;20118;-85
2021/11/18 00:29:33;;;;;;;17.02;5.60;;;;;;;;;;4956847;28;20034;-85
2021/11/18 00:31:58;;;;;;;12.70;5.80;;;;;;;;;;4960875;28;20045;-81
2021/11/18 00:34:24;;;;;;;12.27;5.68;;;;;;;;;;4974808;28;20080;-85
2021/11/18 00:36:49;;;;;;;8.82;5.25;;;;;;;;;;4991742;28;20113;-79
2021/11/18 00:39:14;;;;;;;12.93;5.35;;;;;;;;;;4970714;28;20084;-85
2021/11/18 00:41:40;;;;;;;13.02;6.03;;;;;;;;;;4970270;28;20036;-83
2021/11/18 00:44:07;;;;;;;12.23;5.93;;;;;;;;;;4966022;28;20034;-79
2021/11/18 00:46:33;;;;;;;11.05;5.32;;;;;;;;;;4971635;28;20034;-81
2021/11/18 00:48:59;;;;;;;14.43;5.55;;;;;;;;;;4972017;28;20113;-85
2021/11/18 00:51:25;;;;;;;12.52;5.55;;;;;;;;;;4984182;28;20144;-82
2021/11/18 00:53:54;;;;;;;11.63;5.28;;;;;;;;;;4984565;28;20034;-85
2021/11/18 00:56:21;;;;;;;14.82;5.97;;;;;;;;;;4969072;28;20409;-85
2021/11/18 00:58:48;;;;;;;14.48;6.10;;;;;;;;;;4969549;28;20045;-82
2021/11/18 01:01:15;;;;;;;14.68;5.53;;;;;;;;;;4989868;28;20033;-85
2021/11/18 01:03:41;;;;;;;13.40;5.88;;;;;;;;;;4965193;28;20034;-79
2021/11/18 01:06:06;;;;;;;8.68;5.15;;;;;;;;;;4969918;28;20058;-85
2021/11/18 01:08:32;;;;;;;15.73;6.10;;;;;;;;;;4970759;28;20108;-81
2021/11/18 01:11:10;;;;;;;13.90;5.85;;;;;;;;;;4969239;28;20592;-81
2021/11/18 01:13:36;;;;;;;15.50;5.88;;;;;;;;;;4968221;28;20610;-81
2021/11/18 01:16:03;;;;;;;23.08;6.75;;;;;;;;;;4969077;28;20145;-79
2021/11/18 01:18:30;;;;;;;14.05;5.97;;;;;;;;;;4970746;28;20624;-79
2021/11/18 01:20:56;;;;;;;15.00;5.68;;;;;;;;;;4967256;28;20030;-84
2021/11/18 01:23:25;;;;;;;15.13;6.10;;;;;;;;;;4986203;28;20025;-86
2021/11/18 01:25:51;;;;;;;12.35;5.75;;;;;;;;;;4984459;28;20057;-82
2021/11/18 01:28:16;;;;;;;14.43;6.28;;;;;;;;;;4971874;28;20497;-80
2021/11/18 01:30:42;;;;;;;16.20;5.72;;;;;;;;;;4988778;28;20117;-86
2021/11/18 01:33:13;;;;;;;14.27;6.70;;;;;;;;;;4975705;28;20113;-84
2021/11/18 01:35:39;;;;;;;13.73;5.88;;;;;;;;;;4987843;28;20030;-84
2021/11/18 01:38:05;;;;;;;12.70;5.88;;;;;;;;;;4986458;28;20023;-81
2021/11/18 01:40:34;;;;;;;18.30;6.25;;;;;;;;;;4986775;28;20065;-85
2021/11/18 01:43:00;;;;;;;14.43;5.70;;;;;;;;;;4971760;28;20041;-81
2021/11/18 01:45:28;;;;;;;12.75;6.03;;;;;;;;;;4965922;28;20030;-84
2021/11/18 01:47:54;;;;;;;16.60;6.53;;;;;;;;;;4973030;28;20501;-81
2021/11/18 01:50:23;;;;;;;15.00;5.85;;;;;;;;;;4987047;28;20022;-86
2021/11/18 01:52:50;;;;;;;13.93;5.85;;;;;;;;;;4989430;28;20382;-87
2021/11/18 01:55:20;;;;;;;14.90;6.57;;;;;;;;;;4989571;28;20026;-85
2021/11/18 01:57:46;;;;;;;14.10;5.97;;;;;;;;;;4972331;28;20030;-86
2021/11/18 02:00:17;;;;;;;15.70;6.40;;;;;;;;;;4970020;28;20037;-81
2021/11/18 02:02:44;;;;;;;17.95;6.85;;;;;;;;;;4971329;28;20825;-85
2021/11/18 02:05:28;;;;;;;15.30;6.25;;;;;;;;;;4988010;28;20030;-85
2021/11/18 02:07:54;;;;;;;15.63;5.90;;;;;;;;;;4972742;28;20038;-81
2021/11/18 02:10:46;;;;;;;15.10;6.90;;;;;;;;;;4993269;28;20465;-85
2021/11/18 02:13:16;;;;;;;18.15;6.53;;;;;;;;;;4984031;28;20085;-86
2021/11/18 02:15:51;;;;;;;17.45;6.05;;;;;;;;;;4989768;28;20406;-85
2021/11/18 02:18:26;;;;;;;18.52;6.43;;;;;;;;;;4975869;28;20174;-85
2021/11/18 02:20:56;;;;;;;15.63;6.60;;;;;;;;;;4978250;28;20019;-85
2021/11/18 02:23:25;;;;;;;14.40;5.93;;;;;;;;;;4979404;28;20034;-81
2021/11/18 02:25:52;;;;;;;15.95;6.95;;;;;;;;;;4990854;28;20058;-84
2021/11/18 02:28:19;;;;;;;16.30;6.18;;;;;;;;;;4991495;28;20552;-81
2021/11/18 02:30:46;;;;;;;13.95;6.18;;;;;;;;;;4975491;28;20025;-84
2021/11/18 02:33:13;;;;;;;14.63;6.45;;;;;;;;;;4976397;28;20109;-84
2021/11/18 02:35:40;;;;;;;12.60;6.10;;;;;;;;;;4973465;28;20390;-79
2021/11/18 02:38:07;;;;;;;14.50;6.47;;;;;;;;;;4973562;28;20077;-84
2021/11/18 02:40:33;;;;;;;14.27;6.75;;;;;;;;;;4988737;28;20030;-79
2021/11/18 02:43:00;;;;;;;15.82;6.25;;;;;;;;;;4992207;28;20037;-85
2021/11/18 02:45:30;;;;;;;14.57;6.38;;;;;;;;;;4990507;28;20478;-85
2021/11/18 02:47:56;;;;;;;14.90;6.53;;;;;;;;;;4975418;28;20030;-79
2021/11/18 02:50:35;;;;;;;15.27;6.40;;;;;;;;;;4993401;28;20051;-84
2021/11/18 02:53:02;;;;;;;14.13;6.88;;;;;;;;;;4991230;28;20040;-81
2021/11/18 02:55:32;;;;;;;17.08;6.63;;;;;;;;;;4974636;28;20034;-80
2021/11/18 02:57:58;;;;;;;12.73;6.38;;;;;;;;;;4992536;28;20030;-81
2021/11/18 03:00:30;;;;;;;15.23;6.30;;;;;;;;;;4972659;28;20037;-80
2021/11/18 03:02:57;;;;;;;16.50;6.93;;;;;;;;;;4979501;28;20085;-84
2021/11/18 03:05:23;;;;;;;15.48;7.30;;;;;;;;;;4992237;28;20034;-86
2021/11/18 03:07:49;;;;;;;23.55;7.35;;;;;;;;;;4989277;28;20034;-78
2021/11/18 03:10:17;;;;;;;15.65;6.45;;;;;;;;;;4992516;28;20042;-84
2021/11/18 03:12:42;;;;;;;16.85;6.85;;;;;;;;;;4967926;28;20018;-81
2021/11/18 03:15:11;;;;;;;13.05;7.20;;;;;;;;;;4968836;28;20081;-84
2021/11/18 03:17:38;;;;;;;16.13;6.82;;;;;;;;;;4973999;28;20026;-85
2021/11/18 03:20:07;;;;;;;16.70;7.13;;;;;;;;;;4975186;28;20068;-79
2021/11/18 03:22:33;;;;;;;16.23;6.97;;;;;;;;;;4972163;28;20059;-81
2021/11/18 03:24:58;;;;;;;18.27;7.13;;;;;;;;;;4973891;28;20073;-85
2021/11/18 03:27:24;;;;;;;21.90;8.13;;;;;;;;;;4990142;28;20029;-86
2021/11/18 03:29:49;;;;;;;17.80;7.65;;;;;;;;;;4974848;28;20026;-84
2021/11/18 03:32:15;;;;;;;15.95;8.15;;;;;;;;;;4989808;28;20026;-84
2021/11/18 03:34:41;;;;;;;15.40;6.88;;;;;;;;;;4988102;28;20060;-85
2021/11/18 03:37:06;;;;;;;16.38;7.43;;;;;;;;;;4974646;28;20030;-85
2021/11/18 03:39:31;;;;;;;17.50;7.68;;;;;;;;;;4973763;28;20037;-86
2021/11/18 03:42:01;;;;;;;18.60;8.55;;;;;;;;;;4988522;28;20185;-84
2021/11/18 03:44:27;;;;;;;15.95;7.47;;;;;;;;;;4972334;28;20034;-81
2021/11/18 03:46:58;;;;;;;16.85;8.70;;;;;;;;;;4988952;28;20037;-84
2021/11/18 03:49:25;;;;;;;19.38;8.13;;;;;;;;;;4991229;28;20145;-85
2021/11/18 03:51:53;;;;;;;15.95;7.68;;;;;;;;;;4972908;28;20037;-84
2021/11/18 03:54:21;;;;;;;19.45;7.63;;;;;;;;;;4990064;28;20030;-86
2021/11/18 03:56:46;;;;;;;18.58;8.48;;;;;;;;;;4973302;28;20022;-85
2021/11/18 03:59:17;;;;;;;20.52;8.85;;;;;;;;;;4974365;28;20049;-79
2021/11/18 04:01:45;;;;;;;20.75;8.73;;;;;;;;;;4974319;28;20029;-78
2021/11/18 04:04:13;;;;;;;19.13;8.55;;;;;;;;;;4990770;28;20084;-81
2021/11/18 04:06:40;;;;;;;18.05;8.88;;;;;;;;;;4972928;28;20393;-80
2021/11/18 04:09:06;;;;;;;23.77;9.43;;;;;;;;;;4976611;28;20037;-85
2021/11/18 04:11:33;;;;;;;14.75;8.07;;;;;;;;;;4975152;28;20655;-85
2021/11/18 04:13:58;;;;;;;24.95;9.13;;;;;;;;;;4977491;28;20026;-81
2021/11/18 04:16:23;;;;;;;18.70;8.10;;;;;;;;;;4972948;28;20057;-86
2021/11/18 04:18:49;;;;;;;18.85;9.05;;;;;;;;;;4989895;28;20386;-80
2021/11/18 04:21:17;;;;;;;18.65;8.65;;;;;;;;;;4991630;28;20030;-81
2021/11/18 04:23:43;;;;;;;23.15;8.45;;;;;;;;;;4988829;28;20048;-81
2021/11/18 04:26:08;;;;;;;23.48;9.35;;;;;;;;;;4989262;28;20133;-86
2021/11/18 04:28:34;;;;;;;21.83;9.45;;;;;;;;;;4974260;28;20030;-85
2021/11/18 04:31:04;;;;;;;16.70;8.05;;;;;;;;;;4975119;28;20025;-85
2021/11/18 04:33:31;;;;;;;19.02;8.25;;;;;;;;;;4989011;28;20389;-79
2021/11/18 04:35:58;;;;;;;19.20;9.13;;;;;;;;;;4988881;28;20046;-80
2021/11/18 04:38:25;;;;;;;23.00;9.18;;;;;;;;;;4973854;28;20030;-79
2021/11/18 04:40:51;;;;;;;17.77;8.43;;;;;;;;;;4974503;28;20536;-84
2021/11/18 04:43:18;;;;;;;25.17;9.80;;;;;;;;;;4972388;28;20362;-85
2021/11/18 04:45:43;;;;;;;20.20;8.18;;;;;;;;;;4989240;28;20041;-81
2021/11/18 04:48:08;;;;;;;25.63;9.20;;;;;;;;;;4989168;28;20026;-79
2021/11/18 04:50:35;;;;;;;22.08;9.40;;;;;;;;;;4990469;28;20130;-86
2021/11/18 04:53:01;;;;;;;20.08;8.32;;;;;;;;;;4968925;28;20521;-84
2021/11/18 04:55:28;;;;;;;16.38;8.70;;;;;;;;;;4969746;28;20034;-84
2021/11/18 04:57:53;;;;;;;22.35;8.73;;;;;;;;;;4988074;28;20026;-78
2021/11/18 05:00:26;;;;;;;19.83;8.90;;;;;;;;;;4988851;28;20022;-84
2021/11/18 05:02:53;;;;;;;29.30;9.63;;;;;;;;;;4970873;28;20077;-86
2021/11/18 05:05:21;;;;;;;25.98;9.48;;;;;;;;;;4969854;28;20477;-78
2021/11/18 05:07:47;;;;;;;22.67;9.40;;;;;;;;;;4974427;28;20030;-84
2021/11/18 05:10:14;;;;;;;23.55;9.00;;;;;;;;;;4989662;28;20035;-85
2021/11/18 05:12:41;;;;;;;16.55;8.60;;;;;;;;;;4971325;28;20030;-86
2021/11/18 05:15:09;;;;;;;26.20;10.20;;;;;;;;;;4988240;28;20026;-85
2021/11/18 05:17:34;;;;;;;20.05;9.38;;;;;;;;;;4986921;28;20023;-79
2021/11/18 05:20:00;;;;;;;25.23;9.88;;;;;;;;;;4987711;28;20029;-85
2021/11/18 05:22:25;;;;;;;21.13;9.93;;;;;;;;;;4986837;28;20026;-84
2021/11/18 05:24:52;;;;;;;25.73;10.10;;;;;;;;;;4988653;28;20026;-78
2021/11/18 05:27:20;;;;;;;21.00;8.88;;;;;;;;;;4969019;28;20038;-85
2021/11/18 05:29:45;;;;;;;23.33;10.23;;;;;;;;;;4989731;28;20093;-84
2021/11/18 05:32:11;;;;;;;24.48;9.43;;;;;;;;;;4973145;28;20501;-81
2021/11/18 05:34:39;;;;;;;24.77;10.20;;;;;;;;;;4971166;28;20157;-85
2021/11/18 05:37:04;;;;;;;32.53;10.32;;;;;;;;;;4972153;28;20030;-84
2021/11/18 05:39:30;;;;;;;25.60;9.68;;;;;;;;;;4972472;28;20022;-79
2021/11/18 05:41:55;;;;;;;24.90;9.68;;;;;;;;;;4989661;28;20027;-79
2021/11/18 05:44:21;;;;;;;22.55;10.07;;;;;;;;;;4990158;28;20073;-79
2021/11/18 05:46:46;;;;;;;19.38;9.13;;;;;;;;;;4987484;28;20037;-84
2021/11/18 05:49:11;;;;;;;26.50;10.27;;;;;;;;;;4970957;28;20047;-86
2021/11/18 05:51:37;;;;;;;21.23;9.85;;;;;;;;;;4971728;28;20026;-84
2021/11/18 05:54:07;;;;;;;25.58;10.25;;;;;;;;;;4986207;28;20022;-85
2021/11/18 05:56:33;;;;;;;26.88;10.05;;;;;;;;;;4987395;28;20474;-85
2021/11/18 05:58:58;;;;;;;24.50;9.30;;;;;;;;;;4972661;28;20117;-81
2021/11/18 06:01:28;;;;;;;25.95;9.02;;;;;;;;;;4968601;28;20027;-85
2021/11/18 06:03:54;;;;;;;24.98;9.77;;;;;;;;;;4954388;28;20068;-79
2021/11/18 06:06:20;;;;;;;23.52;9.27;;;;;;;;;;4967080;28;20495;-78
2021/11/18 06:08:45;;;;;;;28.27;10.75;;;;;;;;;;4970623;28;20113;-84
2021/11/18 06:11:11;;;;;;;26.00;10.20;;;;;;;;;;4973499;28;20058;-84
2021/11/18 06:13:37;;;;;;;26.92;10.05;;;;;;;;;;4971667;28;20053;-86
2021/11/18 06:16:04;;;;;;;26.83;9.88;;;;;;;;;;4986023;28;20057;-84
2021/11/18 06:18:29;;;;;;;21.05;9.57;;;;;;;;;;4984249;28;20371;-81
2021/11/18 06:20:55;;;;;;;29.90;9.27;;;;;;;;;;4986326;28;20034;-84
2021/11/18 06:23:21;;;;;;;22.52;9.07;;;;;;;;;;4970154;28;20041;-78
2021/11/18 06:25:47;;;;;;;24.92;10.10;;;;;;;;;;4973609;28;20153;-79
2021/11/18 06:28:14;;;;;;;21.50;9.23;;;;;;;;;;4987666;28;20022;-81
2021/11/18 06:30:47;;;;;;;22.27;9.00;;;;;;;;;;4988836;28;20482;-84
2021/11/18 06:33:12;;;;;;;26.85;9.85;;;;;;;;;;4989947;28;20105;-81
2021/11/18 06:35:39;;;;;;;25.38;9.15;;;;;;;;;;4989478;28;20038;-79
2021/11/18 06:38:05;;;;;;;20.75;9.18;;;;;;;;;;4987483;28;20502;-81
2021/11/18 06:40:30;;;;;;;22.05;9.13;;;;;;;;;;4988875;28;20053;-79
2021/11/18 06:42:56;;;;;;;18.38;8.65;;;;;;;;;;4982052;28;20030;-84
2021/11/18 06:45:25;;;;;;;22.25;8.98;;;;;;;;;;4988569;28;20027;-86
2021/11/18 06:47:51;;;;;;;27.08;9.57;;;;;;;;;;4988356;28;20450;-84
2021/11/18 06:50:17;;;;;;;24.92;9.93;;;;;;;;;;4985657;28;20068;-85
2021/11/18 06:52:42;;;;;;;22.98;9.20;;;;;;;;;;4990946;28;20043;-83
2021/11/18 06:55:09;;;;;;;29.60;10.38;;;;;;;;;;4992448;28;20761;-85
2021/11/18 06:57:34;;;;;;;24.50;9.63;;;;;;;;;;4989636;28;20033;-86
2021/11/18 07:00:00;;;;;;;37.25;12.15;;;;;;;;;;4991273;28;20023;-81
2021/11/18 07:02:26;;;;;;;23.48;9.95;;;;;;;;;;4992310;28;20105;-81
2021/11/18 07:04:52;;;;;;;26.08;10.77;;;;;;;;;;4993231;28;20050;-85
2021/11/18 07:07:17;;;;;;;29.63;11.00;;;;;;;;;;4995149;28;20030;-85
2021/11/18 07:09:43;;;;;;;25.85;10.05;;;;;;;;;;4987993;28;20023;-84
2021/11/18 07:12:12;;;;;;;23.58;9.88;;;;;;;;;;4993241;28;20520;-85
2021/11/18 07:14:38;;;;;;;24.38;9.65;;;;;;;;;;4992903;28;20037;-81
2021/11/18 07:17:04;;;;;;;25.10;10.00;;;;;;;;;;4989459;28;20101;-86
2021/11/18 07:19:31;;;;;;;28.45;10.48;;;;;;;;;;4992868;28;20109;-85
2021/11/18 07:21:58;;;;;;;29.50;10.82;;;;;;;;;;4990621;28;20063;-86
2021/11/18 07:24:25;;;;;;;26.35;10.18;;;;;;;;;;4992339;28;20091;-84
2021/11/18 07:26:50;;;;;;;21.98;9.38;;;;;;;;;;4989768;28;20121;-81
2021/11/18 07:29:16;;;;;;;25.45;9.27;;;;;;;;;;4994015;28;20580;-81
2021/11/18 07:31:42;;;;;;;23.83;9.45;;;;;;;;;;4990031;28;20038;-79
2021/11/18 07:34:07;;;;;;;26.33;10.52;;;;;;;;;;4992430;28;20030;-85
2021/11/18 07:36:33;;;;;;;28.35;9.75;;;;;;;;;;4988323;28;20525;-84
2021/11/18 07:38:58;;;;;;;22.77;9.48;;;;;;;;;;4987820;28;20022;-84
2021/11/18 07:41:24;;;;;;;26.77;10.85;;;;;;;;;;4990126;28;20367;-81
2021/11/18 07:43:49;;;;;;;29.80;10.43;;;;;;;;;;4993621;28;20026;-84
2021/11/18 07:46:17;;;;;;;23.92;8.77;;;;;;;;;;4996499;28;20486;-84
2021/11/18 07:48:47;;;;;;;24.35;8.77;;;;;;;;;;4987533;28;20039;-85
2021/11/18 07:51:14;;;;;;;26.25;8.70;;;;;;;;;;4984811;28;20155;-84
2021/11/18 07:53:42;;;;;;;26.30;9.77;;;;;;;;;;4991270;28;20040;-80
2021/11/18 07:56:08;;;;;;;25.02;10.32;;;;;;;;;;4991445;28;20113;-84
2021/11/18 07:58:33;;;;;;;29.67;10.10;;;;;;;;;;4993055;28;20035;-84
2021/11/18 08:00:59;;;;;;;34.22;11.35;;;;;;;;;;4989204;28;20037;-78
2021/11/18 08:03:26;;;;;;;19.73;8.80;;;;;;;;;;4989030;28;20022;-85
2021/11/18 08:05:51;;;;;;;22.58;10.32;;;;;;;;;;4993601;28;20026;-85
2021/11/18 08:08:16;;;;;;;27.52;9.95;;;;;;;;;;4990626;28;20493;-81
2021/11/18 08:10:42;;;;;;;30.80;10.77;;;;;;;;;;4987547;28;20106;-84
2021/11/18 08:13:08;;;;;;;31.20;11.50;;;;;;;;;;4973792;28;20035;-79
2021/11/18 08:15:33;;;;;;;26.75;10.20;;;;;;;;;;4989062;28;20109;-81
2021/11/18 08:17:59;;;;;;;29.80;10.32;;;;;;;;;;4985998;28;20031;-84
2021/11/18 08:20:26;;;;;;;30.20;10.43;;;;;;;;;;4990127;28;20026;-84
2021/11/18 08:22:53;;;;;;;32.28;10.50;;;;;;;;;;4992250;28;20018;-80
2021/11/18 08:25:23;;;;;;;28.38;10.27;;;;;;;;;;4986497;28;20066;-78
2021/11/18 08:27:48;;;;;;;28.02;10.18;;;;;;;;;;4985833;28;20039;-84
2021/11/18 08:30:17;;;;;;;31.45;11.43;;;;;;;;;;4990134;28;20085;-84
2021/11/18 08:32:49;;;;;;;30.90;11.30;;;;;;;;;;4989756;28;20022;-85
2021/11/18 08:35:19;;;;;;;30.77;10.93;;;;;;;;;;4988129;28;20049;-79
2021/11/18 08:37:47;;;;;;;29.20;10.80;;;;;;;;;;4989636;28;20090;-84
2021/11/18 08:40:13;;;;;;;29.65;10.73;;;;;;;;;;4982236;28;20367;-84
2021/11/18 08:42:38;;;;;;;36.03;11.18;;;;;;;;;;4988987;28;20030;-84
2021/11/18 08:45:08;;;;;;;29.95;10.65;;;;;;;;;;4989346;28;20030;-81
2021/11/18 08:47:33;;;;;;;31.02;12.10;;;;;;;;;;4992661;28;20040;-85
2021/11/18 08:50:00;;;;;;;28.15;10.07;;;;;;;;;;4988455;28;20027;-80
2021/11/18 08:52:28;;;;;;;36.60;10.50;;;;;;;;;;4986557;28;20533;-81
2021/11/18 08:54:57;;;;;;;26.27;10.77;;;;;;;;;;4990796;28;20026;-81
2021/11/18 08:57:23;;;;;;;30.45;11.35;;;;;;;;;;4990387;28;20482;-84
2021/11/18 08:59:50;;;;;;;31.38;10.80;;;;;;;;;;4994075;28;20026;-84
2021/11/18 09:02:21;;;;;;;24.50;10.40;;;;;;;;;;4991960;28;20077;-80
2021/11/18 09:04:50;;;;;;;31.05;10.48;;;;;;;;;;4990536;28;20096;-78
2021/11/18 09:07:16;;;;;;;29.35;11.05;;;;;;;;;;4990381;28;20030;-85
2021/11/18 09:09:42;;;;;;;30.58;11.10;;;;;;;;;;4989902;28;20030;-84
2021/11/18 09:12:09;;;;;;;31.83;10.10;;;;;;;;;;4987782;28;20034;-85
2021/11/18 09:14:36;;;;;;;27.67;10.93;;;;;;;;;;4991070;28;20030;-85
2021/11/18 09:17:06;;;;;;;30.65;11.20;;;;;;;;;;4989615;28;20030;-80
2021/11/18 09:19:34;;;;;;;29.38;11.15;;;;;;;;;;4991127;28;20018;-85
2021/11/18 09:22:09;;;;;;;29.77;11.07;;;;;;;;;;4986425;28;20122;-85
2021/11/18 09:24:47;;;;;;;31.08;10.98;;;;;;;;;;5005716;28;20033;-84
2021/11/18 09:27:33;;;;;;;28.38;10.38;;;;;;;;;;4993413;28;20393;-84
2021/11/18 09:30:03;;;;;;;29.67;10.25;;;;;;;;;;4987716;28;20045;-86
2021/11/18 09:32:36;;;;;;;33.30;10.45;;;;;;;;;;4988140;28;20038;-80
2021/11/18 09:35:07;;;;;;;26.23;10.38;;;;;;;;;;4989419;28;20116;-80
2021/11/18 09:37:33;;;;;;;29.65;10.02;;;;;;;;;;4991203;28;20430;-80
2021/11/18 09:39:59;;;;;;;29.00;10.63;;;;;;;;;;4993581;28;20058;-85
2021/11/18 09:42:36;;;;;;;25.45;9.88;;;;;;;;;;4991414;28;20069;-84
2021/11/18 09:45:22;;;;;;;31.02;8.85;;;;;;;;;;4989015;28;20367;-86
2021/11/18 09:48:12;;;;;;;22.15;9.55;;;;;;;;;;4988170;28;20031;-84
2021/11/18 09:51:15;;;;;;;26.05;10.30;;;;;;;;;;4986432;28;20034;-80
2021/11/18 09:53:47;;;;;;;27.00;10.07;;;;;;;;;;4987564;28;20437;-86
2021/11/18 09:56:32;;;;;;;27.70;10.18;;;;;;;;;;4987809;28;20097;-77
2021/11/18 09:59:09;;;;;;;23.23;8.95;;;;;;;;;;4992609;28;20460;-85
2021/11/18 10:01:44;;;;;;;28.05;9.80;;;;;;;;;;4987708;28;20076;-80
2021/11/18 10:04:34;;;;;;;32.58;9.85;;;;;;;;;;4990642;28;20040;-86
2021/11/18 10:07:08;;;;;;;26.33;10.32;;;;;;;;;;4986015;28;20023;-79
2021/11/18 10:10:06;;;;;;;25.73;9.18;;;;;;;;;;4988423;28;20042;-79
2021/11/18 10:12:37;;;;;;;27.35;9.68;;;;;;;;;;4982522;28;20045;-85
2021/11/18 10:15:10;;;;;;;30.48;10.13;;;;;;;;;;4984392;28;20034;-86
2021/11/18 10:17:42;;;;;;;29.48;9.50;;;;;;;;;;4998740;28;20038;-86
2021/11/18 10:20:16;;;;;;;29.85;10.00;;;;;;;;;;4987674;28;20804;-78
2021/11/18 10:22:50;;;;;;;29.75;9.02;;;;;;;;;;4989795;28;20022;-78
2021/11/18 10:25:19;;;;;;;28.48;9.85;;;;;;;;;;4987395;28;20065;-84
2021/11/18 10:27:50;;;;;;;27.23;9.48;;;;;;;;;;4990929;28;20426;-79
2021/11/18 10:30:34;;;;;;;25.05;8.88;;;;;;;;;;4991962;28;20060;-78
2021/11/18 10:33:25;;;;;;;29.23;9.32;;;;;;;;;;5006469;28;20678;-80
2021/11/18 10:35:54;;;;;;;23.75;8.25;;;;;;;;;;5004081;28;20026;-78
2021/11/18 10:38:39;;;;;;;23.25;8.18;;;;;;;;;;4992846;28;20030;-85
2021/11/18 10:41:27;;;;;;;21.85;7.60;;;;;;;;;;4989534;28;20034;-80
2021/11/18 10:44:17;;;;;;;25.00;6.63;;;;;;;;;;4991933;28;20034;-80
2021/11/18 10:46:55;;;;;;;25.05;7.55;;;;;;;;;;4989344;28;20054;-80
2021/11/18 10:49:39;;;;;;;26.58;7.32;;;;;;;;;;4992188;28;20062;-85
2021/11/18 10:52:21;;;;;;;26.30;7.43;;;;;;;;;;4989228;28;20505;-77
2021/11/18 10:54:50;;;;;;;22.10;6.57;;;;;;;;;;4991243;28;20397;-77
2021/11/18 10:57:23;;;;;;;19.35;6.93;;;;;;;;;;4993631;28;20038;-80
2021/11/18 11:00:09;;;;;;;16.67;6.57;;;;;;;;;;4984728;28;20036;-86
2021/11/18 11:02:35;;;;;;;20.83;7.45;;;;;;;;;;5004419;28;20034;-78
2021/11/18 11:05:25;;;;;;;22.23;6.60;;;;;;;;;;4988618;28;20022;-80
2021/11/18 11:07:54;;;;;;;19.77;6.22;;;;;;;;;;4990359;28;20038;-85
2021/11/18 11:10:23;;;;;;;22.58;6.82;;;;;;;;;;4992419;28;20393;-78
2021/11/18 11:13:00;;;;;;;17.95;6.35;;;;;;;;;;4993203;28;20114;-85
2021/11/18 11:15:45;;;;;;;21.88;6.55;;;;;;;;;;4988932;28;20023;-84
2021/11/18 11:18:20;;;;;;;22.40;6.47;;;;;;;;;;4988844;28;20030;-80
2021/11/18 11:21:07;;;;;;;21.77;6.88;;;;;;;;;;4985080;28;20081;-81
2021/11/18 11:24:04;;;;;;;19.70;6.70;;;;;;;;;;4991734;28;20109;-80
2021/11/18 11:27:07;;;;;;;16.67;5.38;;;;;;;;;;4979047;28;20046;-79
2021/11/18 11:29:40;;;;;;;21.85;6.50;;;;;;;;;;4989015;28;20034;-84
2021/11/18 11:32:23;;;;;;;22.77;6.53;;;;;;;;;;4989323;28;20100;-77
2021/11/18 11:35:26;;;;;;;21.80;6.20;;;;;;;;;;4966956;28;20287;-81
2021/11/18 11:38:19;;;;;;;20.57;6.10;;;;;;;;;;4991201;28;20026;-80
2021/11/18 11:40:47;;;;;;;21.38;6.40;;;;;;;;;;4973861;28;20030;-84
2021/11/18 11:43:31;;;;;;;20.35;6.82;;;;;;;;;;4987599;28;20479;-80
2021/11/18 11:46:18;;;;;;;22.50;6.70;;;;;;;;;;4974159;28;20504;-84
2021/11/18 11:48:51;;;;;;;18.48;6.00;;;;;;;;;;4972339;28;20502;-81
2021/11/18 11:51:27;;;;;;;22.35;6.28;;;;;;;;;;4989650;28;20030;-84
2021/11/18 11:54:17;;;;;;;17.35;6.55;;;;;;;;;;4991459;28;20038;-84
2021/11/18 11:56:50;;;;;;;22.40;6.80;;;;;;;;;;4991278;28;20393;-84
2021/11/18 11:59:18;;;;;;;20.00;6.60;;;;;;;;;;4991530;28;20033;-84
2021/11/18 12:01:56;;;;;;;23.27;7.05;;;;;;;;;;4971759;28;20034;-85
2021/11/18 12:04:27;;;;;;;22.58;6.30;;;;;;;;;;4977273;28;20038;-78
2021/11/18 12:07:13;;;;;;;19.55;6.05;;;;;;;;;;4986424;28;20033;-77
2021/11/18 12:10:25;;;;;;;22.92;6.43;;;;;;;;;;4976307;28;20026;-81
2021/11/18 12:13:05;;;;;;;22.08;5.63;;;;;;;;;;4967975;28;20085;-81
2021/11/18 12:15:34;;;;;;;18.23;5.85;;;;;;;;;;4972872;28;20390;-85
2021/11/18 12:18:04;;;;;;;24.45;5.72;;;;;;;;;;4971679;28;20026;-81
2021/11/18 12:20:35;;;;;;;22.63;5.82;;;;;;;;;;4991164;28;20041;-78
2021/11/18 12:23:05;;;;;;;19.42;5.65;;;;;;;;;;4970888;28;20474;-78
2021/11/18 12:25:40;;;;;;;21.60;5.75;;;;;;;;;;4990185;28;20534;-86
2021/11/18 12:28:11;;;;;;;24.40;5.85;;;;;;;;;;4969947;28;20188;-84
2021/11/18 12:31:02;;;;;;;18.00;5.88;;;;;;;;;;4971864;28;20025;-78
2021/11/18 12:33:27;;;;;;;19.20;5.65;;;;;;;;;;4991680;28;20054;-78
2021/11/18 12:36:16;;;;;;;22.67;5.72;;;;;;;;;;4975075;28;20065;-86
2021/11/18 12:39:34;;;;;;;21.52;5.20;;;;;;;;;;4990937;28;20033;-81
2021/11/18 12:43:04;;;;;;;19.42;6.18;;;;;;;;;;4995402;28;20120;-78
2021/11/18 12:46:08;;;;;;;21.95;5.55;;;;;;;;;;4907327;28;20030;-85
2021/11/18 12:48:52;;;;;;;16.92;5.43;;;;;;;;;;4974909;28;20490;-84
2021/11/18 12:51:25;;;;;;;15.85;5.55;;;;;;;;;;4972040;28;20486;-80
2021/11/18 12:54:20;;;;;;;19.67;5.53;;;;;;;;;;4991622;28;20033;-83
2021/11/18 12:56:48;;;;;;;18.42;5.43;;;;;;;;;;4976144;28;20034;-80
2021/11/18 12:59:36;;;;;;;21.10;5.63;;;;;;;;;;4974707;28;20014;-80
2021/11/18 13:02:06;;;;;;;17.20;5.68;;;;;;;;;;4971077;28;20034;-78
2021/11/18 13:04:35;;;;;;;17.77;6.07;;;;;;;;;;4974734;28;20063;-78
2021/11/18 13:07:01;;;;;;;20.08;5.57;;;;;;;;;;4989080;28;20180;-84
2021/11/18 13:10:04;;;;;;;21.88;6.22;;;;;;;;;;4988406;28;20534;-81
2021/11/18 13:12:30;;;;;;;18.45;6.13;;;;;;;;;;4988765;28;20367;-78
2021/11/18 13:15:16;;;;;;;18.63;5.70;;;;;;;;;;4980307;28;20033;-84
2021/11/18 13:17:45;;;;;;;20.02;6.15;;;;;;;;;;4966762;28;20490;-85
2021/11/18 13:20:14;;;;;;;22.85;6.70;;;;;;;;;;4975604;28;20888;-85
2021/11/18 13:22:49;;;;;;;19.83;6.38;;;;;;;;;;4973541;28;20488;-81
2021/11/18 13:25:17;;;;;;;19.88;5.70;;;;;;;;;;4975596;28;20076;-77
2021/11/18 13:27:42;;;;;;;18.50;5.88;;;;;;;;;;4988572;28;20033;-78
2021/11/18 13:30:26;;;;;;;23.67;6.20;;;;;;;;;;4987374;28;20035;-85
2021/11/18 13:32:55;;;;;;;21.23;5.53;;;;;;;;;;4990503;28;20489;-80
2021/11/18 13:35:28;;;;;;;23.88;6.03;;;;;;;;;;4988235;28;20072;-78
2021/11/18 13:38:12;;;;;;;20.52;6.10;;;;;;;;;;4988554;28;20027;-79
2021/11/18 13:40:48;;;;;;;26.98;6.50;;;;;;;;;;4989723;28;20033;-85
2021/11/18 13:43:18;;;;;;;21.52;6.15;;;;;;;;;;4989505;28;20037;-86
2021/11/18 13:46:08;;;;;;;24.20;6.20;;;;;;;;;;4989644;28;20022;-84
2021/11/18 13:48:45;;;;;;;20.35;6.32;;;;;;;;;;4988170;28;20096;-84
2021/11/18 13:51:14;;;;;;;21.05;5.85;;;;;;;;;;4990265;28;20065;-78
2021/11/18 13:53:59;;;;;;;22.98;6.30;;;;;;;;;;4984736;28;20023;-81
2021/11/18 13:56:55;;;;;;;26.35;6.15;;;;;;;;;;4988654;28;20553;-81
2021/11/18 13:59:40;;;;;;;26.00;6.18;;;;;;;;;;4989543;28;20073;-78
2021/11/18 14:02:26;;;;;;;24.35;5.75;;;;;;;;;;4990587;28;20037;-85
2021/11/18 14:05:03;;;;;;;24.83;6.00;;;;;;;;;;4989573;28;20034;-79
2021/11/18 14:07:34;;;;;;;22.02;5.43;;;;;;;;;;4992839;28;20033;-82
2021/11/18 14:10:06;;;;;;;22.58;5.22;;;;;;;;;;4986772;28;20030;-83
2021/11/18 14:13:03;;;;;;;20.10;6.13;;;;;;;;;;4986353;28;20070;-78
2021/11/18 14:15:37;;;;;;;27.55;5.70;;;;;;;;;;4988675;28;20035;-81
2021/11/18 14:18:05;;;;;;;21.20;5.13;;;;;;;;;;4990188;28;20026;-81
2021/11/18 14:20:58;;;;;;;27.02;5.88;;;;;;;;;;4984534;28;20030;-78
2021/11/18 14:23:31;;;;;;;17.48;5.10;;;;;;;;;;5003995;28;20042;-84
2021/11/18 14:26:22;;;;;;;23.98;6.00;;;;;;;;;;5011724;28;20046;-86
2021/11/18 14:29:17;;;;;;;16.30;4.72;;;;;;;;;;4990796;28;20042;-84
2021/11/18 14:31:48;;;;;;;22.60;4.93;;;;;;;;;;5005811;28;20023;-84
2021/11/18 14:34:34;;;;;;;23.58;5.10;;;;;;;;;;4993510;28;20041;-78
2021/11/18 14:37:27;;;;;;;23.98;5.15;;;;;;;;;;4993249;28;20142;-79
2021/11/18 14:40:00;;;;;;;18.02;4.72;;;;;;;;;;4990595;28;20032;-81
2021/11/18 14:43:03;;;;;;;18.40;5.88;;;;;;;;;;4992258;28;20026;-79
2021/11/18 14:45:32;;;;;;;21.25;5.38;;;;;;;;;;4991356;28;20066;-84
2021/11/18 14:48:21;;;;;;;18.55;5.40;;;;;;;;;;4990482;28;20034;-83
2021/11/18 14:51:18;;;;;;;19.65;5.25;;;;;;;;;;4988417;28;20068;-83
2021/11/18 14:53:50;;;;;;;16.80;4.95;;;;;;;;;;4945440;28;20042;-82
2021/11/18 14:56:18;;;;;;;24.70;5.50;;;;;;;;;;4984874;28;20680;-81